createdAt,value
2017-11-17T00:02:08.144Z,55.88
2017-11-17T00:04:36.203Z,51.67
2017-11-17T00:07:05.019Z,52.60
2017-11-17T00:09:33.107Z,57.78
2017-11-17T00:12:01.173Z,49.03
2017-11-17T00:14:30.591Z,54.38
2017-11-17T00:16:58.570Z,50.97
2017-11-17T00:19:27.412Z,58.42
2017-11-17T00:21:55.495Z,63.33
2017-11-17T00:24:23.560Z,47.53
2017-11-17T00:26:52.018Z,49.10
2017-11-17T00:29:21.220Z,52.75
2017-11-17T00:31:50.805Z,50.55
2017-11-17T00:34:18.868Z,54.70
2017-11-17T00:36:46.943Z,49.80
2017-11-17T00:39:15.397Z,50.75
2017-11-17T00:41:43.454Z,47.05
2017-11-17T00:44:11.524Z,50.97
2017-11-17T00:46:39.594Z,53.97
2017-11-17T00:49:07.666Z,50.90
2017-11-17T00:51:36.491Z,46.17
2017-11-17T00:54:04.570Z,41.63
2017-11-17T00:56:32.652Z,52.45
2017-11-17T00:59:00.802Z,43.53
2017-11-17T01:01:29.956Z,49.05
2017-11-17T01:03:58.790Z,47.08
2017-11-17T01:06:27.618Z,48.55
2017-11-17T01:08:56.455Z,57.13
2017-11-17T01:11:24.520Z,56.28
2017-11-17T01:13:52.604Z,62.90
2017-11-17T01:16:20.660Z,51.25
2017-11-17T01:18:48.724Z,55.88
2017-11-17T01:21:16.796Z,55.85
2017-11-17T01:23:46.223Z,48.65
2017-11-17T01:26:14.976Z,54.83
2017-11-17T01:28:43.037Z,62.65
2017-11-17T01:31:11.872Z,59.13
2017-11-17T01:33:41.452Z,56.65
2017-11-17T01:36:10.861Z,64.90
2017-11-17T01:38:38.843Z,60.75
2017-11-17T01:41:06.912Z,60.10
2017-11-17T01:43:34.986Z,62.85
2017-11-17T01:46:03.052Z,62.80
2017-11-17T01:48:31.116Z,54.72
2017-11-17T01:50:59.191Z,48.47
2017-11-17T01:53:27.258Z,60.10
2017-11-17T01:55:55.320Z,61.70
2017-11-17T01:58:23.390Z,59.20
2017-11-17T02:00:52.228Z,57.40
2017-11-17T02:03:20.304Z,57.67
2017-11-17T02:05:48.364Z,60.45
2017-11-17T02:08:16.444Z,56.47
2017-11-17T02:10:44.500Z,51.40
2017-11-17T02:13:12.563Z,51.75
2017-11-17T02:15:41.395Z,53.00
2017-11-17T02:18:09.451Z,59.30
2017-11-17T02:20:38.284Z,50.65
2017-11-17T02:23:07.102Z,52.10
2017-11-17T02:25:35.183Z,58.70
2017-11-17T02:28:03.239Z,51.25
2017-11-17T02:30:31.314Z,60.10
2017-11-17T02:32:59.388Z,62.65
2017-11-17T02:35:27.439Z,47.42
2017-11-17T02:37:55.521Z,49.83
2017-11-17T02:40:23.596Z,51.35
2017-11-17T02:42:52.423Z,45.55
2017-11-17T02:45:21.624Z,48.70
2017-11-17T02:47:49.694Z,47.97
2017-11-17T02:50:18.166Z,44.78
2017-11-17T02:52:46.232Z,47.03
2017-11-17T02:55:14.266Z,46.03
2017-11-17T02:57:42.437Z,50.50
2017-11-17T03:00:11.253Z,46.70
2017-11-17T03:02:39.394Z,44.08
2017-11-17T03:05:08.227Z,52.78
2017-11-17T03:07:36.679Z,48.08
2017-11-17T03:10:04.748Z,49.97
2017-11-17T03:12:32.812Z,50.88
2017-11-17T03:15:01.642Z,52.75
2017-11-17T03:17:29.707Z,49.92
2017-11-17T03:19:57.764Z,59.03
2017-11-17T03:22:25.834Z,49.72
2017-11-17T03:24:53.882Z,49.60
2017-11-17T03:27:23.114Z,54.47
2017-11-17T03:29:52.521Z,53.75
2017-11-17T03:32:20.485Z,47.00
2017-11-17T03:34:48.550Z,45.47
2017-11-17T03:37:16.606Z,46.78
2017-11-17T03:39:46.177Z,49.53
2017-11-17T03:42:14.226Z,54.33
2017-11-17T03:44:42.314Z,53.75
2017-11-17T03:47:10.370Z,51.78
2017-11-17T03:49:38.452Z,54.60
2017-11-17T03:52:06.498Z,52.92
2017-11-17T03:54:34.570Z,53.90
2017-11-17T03:57:03.395Z,60.88
2017-11-17T03:59:31.450Z,76.28
2017-11-17T04:01:59.514Z,68.35
2017-11-17T04:04:27.586Z,63.50
2017-11-17T04:06:55.649Z,68.95
2017-11-17T04:09:23.701Z,68.70
2017-11-17T04:11:51.750Z,69.93
2017-11-17T04:14:20.583Z,66.22
2017-11-17T04:16:48.642Z,68.47
2017-11-17T04:19:16.694Z,64.07
2017-11-17T04:21:44.761Z,60.85
2017-11-17T04:24:14.189Z,63.55
2017-11-17T04:26:42.169Z,64.45
2017-11-17T04:29:10.241Z,71.93
2017-11-17T04:31:39.434Z,65.10
2017-11-17T04:34:07.491Z,58.05
2017-11-17T04:36:36.905Z,58.03
2017-11-17T04:39:04.870Z,56.00
2017-11-17T04:41:33.709Z,48.65
2017-11-17T04:44:01.775Z,59.28
2017-11-17T04:46:29.829Z,58.33
2017-11-17T04:48:59.262Z,61.45
2017-11-17T04:51:27.617Z,49.65
2017-11-17T04:53:56.078Z,61.92
2017-11-17T04:56:25.508Z,52.62
2017-11-17T04:58:54.626Z,62.20
2017-11-17T05:01:23.458Z,60.67
2017-11-17T05:03:51.510Z,63.20
2017-11-17T05:06:21.090Z,62.22
2017-11-17T05:08:49.542Z,61.50
2017-11-17T05:11:17.595Z,55.38
2017-11-17T05:13:47.166Z,57.58
2017-11-17T05:16:15.990Z,58.63
2017-11-17T05:18:44.067Z,60.75
2017-11-17T05:21:12.174Z,60.70
2017-11-17T05:23:40.226Z,58.95
2017-11-17T05:26:09.066Z,52.40
2017-11-17T05:28:37.886Z,61.15
2017-11-17T05:31:06.351Z,62.03
2017-11-17T05:33:34.403Z,69.57
2017-11-17T05:36:03.240Z,85.18
2017-11-17T05:38:31.294Z,73.57
2017-11-17T05:41:00.718Z,56.90
2017-11-17T05:43:28.682Z,50.75
2017-11-17T05:45:56.744Z,54.70
2017-11-17T05:48:24.893Z,50.50
2017-11-17T05:50:53.711Z,52.55
2017-11-17T05:53:22.930Z,48.30
2017-11-17T05:55:50.983Z,51.08
2017-11-17T05:58:19.039Z,60.17
2017-11-17T06:00:47.502Z,46.90
2017-11-17T06:03:16.924Z,44.17
2017-11-17T06:05:46.253Z,48.22
2017-11-17T06:08:14.230Z,55.33
2017-11-17T06:10:42.300Z,51.00
2017-11-17T06:13:10.356Z,62.95
2017-11-17T06:15:38.841Z,57.42
2017-11-17T06:18:06.886Z,56.35
2017-11-17T06:20:34.943Z,56.80
2017-11-17T06:23:04.378Z,63.45
2017-11-17T06:25:32.340Z,62.75
2017-11-17T06:28:00.411Z,65.57
2017-11-17T06:30:28.470Z,67.00
2017-11-17T06:32:56.543Z,76.00
2017-11-17T06:35:24.602Z,63.05
2017-11-17T06:37:53.421Z,59.65
2017-11-17T06:40:21.483Z,68.43
2017-11-17T06:42:49.538Z,63.35
2017-11-17T06:45:17.998Z,62.42
2017-11-17T06:47:46.050Z,58.20
2017-11-17T06:50:15.626Z,58.20
2017-11-17T06:52:43.682Z,60.53
2017-11-17T06:55:11.763Z,60.88
2017-11-17T06:57:39.819Z,61.65
2017-11-17T07:00:07.886Z,68.70
2017-11-17T07:02:36.710Z,65.30
2017-11-17T07:05:06.285Z,61.08
2017-11-17T07:07:34.338Z,65.05
2017-11-17T07:10:03.174Z,59.30
2017-11-17T07:12:31.230Z,62.78
2017-11-17T07:14:59.306Z,60.83
2017-11-17T07:17:27.374Z,60.97
2017-11-17T07:19:55.430Z,64.57
2017-11-17T07:22:23.503Z,60.75
2017-11-17T07:24:51.554Z,62.17
2017-11-17T07:27:20.402Z,56.85
2017-11-17T07:29:48.454Z,58.97
2017-11-17T07:32:16.522Z,64.50
2017-11-17T07:34:44.587Z,64.68
2017-11-17T07:37:12.646Z,67.78
2017-11-17T07:39:41.482Z,61.92
2017-11-17T07:42:09.548Z,79.78
2017-11-17T07:44:38.966Z,70.18
2017-11-17T07:47:06.935Z,65.97
2017-11-17T07:49:35.026Z,71.03
2017-11-17T07:52:03.097Z,68.95
2017-11-17T07:54:31.146Z,68.78
2017-11-17T07:56:59.606Z,85.30
2017-11-17T07:59:28.427Z,81.85
2017-11-17T08:01:56.895Z,73.37
2017-11-17T08:04:24.969Z,73.00
2017-11-17T08:06:53.031Z,77.47
2017-11-17T08:09:21.864Z,75.15
2017-11-17T08:11:50.701Z,59.47
2017-11-17T08:14:18.767Z,62.22
2017-11-17T08:16:46.834Z,63.03
2017-11-17T08:19:14.898Z,65.47
2017-11-17T08:21:43.354Z,70.90
2017-11-17T08:24:12.192Z,65.87
2017-11-17T08:26:41.018Z,65.25
2017-11-17T08:29:09.078Z,54.80
2017-11-17T08:31:37.146Z,56.60
2017-11-17T08:34:05.212Z,56.55
2017-11-17T08:36:33.282Z,42.97
2017-11-17T08:39:01.334Z,49.10
2017-11-17T08:41:30.170Z,45.50
2017-11-17T08:43:59.561Z,56.25
2017-11-17T08:46:27.546Z,44.75
2017-11-17T08:48:55.603Z,41.37
2017-11-17T08:51:25.188Z,38.75
2017-11-17T08:53:54.597Z,49.50
2017-11-17T08:56:23.047Z,47.53
2017-11-17T08:58:51.859Z,48.67
2017-11-17T09:01:19.922Z,41.55
2017-11-17T09:03:47.985Z,48.05
2017-11-17T09:06:16.046Z,56.33
2017-11-17T09:08:44.121Z,44.80
2017-11-17T09:11:12.939Z,52.05
2017-11-17T09:13:41.007Z,64.45
2017-11-17T09:16:09.079Z,56.83
2017-11-17T09:18:37.134Z,53.92
2017-11-17T09:21:05.211Z,54.53
2017-11-17T09:23:33.301Z,67.05
2017-11-17T09:26:01.330Z,60.00
2017-11-17T09:28:29.406Z,75.18
2017-11-17T09:30:57.464Z,70.45
2017-11-17T09:33:26.301Z,63.20
2017-11-17T09:35:55.110Z,67.35
2017-11-17T09:38:23.587Z,73.70
2017-11-17T09:40:51.646Z,84.53
2017-11-17T09:43:19.705Z,76.85
2017-11-17T09:45:47.767Z,72.37
2017-11-17T09:48:15.833Z,80.95
2017-11-17T09:50:45.414Z,68.15
2017-11-17T09:53:14.263Z,77.32
2017-11-17T09:55:42.341Z,81.90
2017-11-17T09:58:11.158Z,82.90
2017-11-17T10:00:39.995Z,75.20
2017-11-17T10:03:08.048Z,90.20
2017-11-17T10:05:36.122Z,77.28
2017-11-17T10:08:04.178Z,79.43
2017-11-17T10:10:33.014Z,82.70
2017-11-17T10:13:01.074Z,76.00
2017-11-17T10:15:29.141Z,78.85
2017-11-17T10:17:57.198Z,69.55
2017-11-17T10:20:25.257Z,77.53
2017-11-17T10:22:54.091Z,74.57
2017-11-17T10:25:22.169Z,85.10
2017-11-17T10:27:50.242Z,77.45
2017-11-17T10:30:19.331Z,98.75
2017-11-17T10:32:47.372Z,74.32
2017-11-17T10:35:15.422Z,86.00
2017-11-17T10:37:44.267Z,73.20
2017-11-17T10:40:12.332Z,71.47
2017-11-17T10:42:40.395Z,83.22
2017-11-17T10:45:09.241Z,89.95
2017-11-17T10:47:38.058Z,87.03
2017-11-17T10:50:06.119Z,94.15
2017-11-17T10:52:34.573Z,95.85
2017-11-17T10:55:03.397Z,80.90
2017-11-17T10:57:31.477Z,104.60
2017-11-17T10:59:59.535Z,90.85
2017-11-17T11:02:27.614Z,102.20
2017-11-17T11:04:55.669Z,98.53
2017-11-17T11:07:25.089Z,101.47
2017-11-17T11:09:53.077Z,114.20
2017-11-17T11:12:21.142Z,94.93
2017-11-17T11:14:49.214Z,93.80
2017-11-17T11:17:17.276Z,98.95
2017-11-17T11:19:45.344Z,104.97
2017-11-17T11:22:13.407Z,91.18
2017-11-17T11:24:41.466Z,83.30
2017-11-17T11:27:10.290Z,92.32
2017-11-17T11:29:38.350Z,86.97
2017-11-17T11:32:06.425Z,90.55
2017-11-17T11:34:34.476Z,85.38
2017-11-17T11:37:02.949Z,83.55
2017-11-17T11:39:31.769Z,77.20
2017-11-17T11:41:59.850Z,81.32
2017-11-17T11:44:27.902Z,91.68
2017-11-17T11:46:55.970Z,99.00
2017-11-17T11:49:24.790Z,88.55
2017-11-17T11:51:52.842Z,84.25
2017-11-17T11:54:22.059Z,107.20
2017-11-17T11:56:50.122Z,103.93
2017-11-17T11:59:18.185Z,92.28
2017-11-17T12:01:46.254Z,102.65
2017-11-17T12:04:17.198Z,81.30
2017-11-17T12:06:45.275Z,80.70
2017-11-17T12:09:13.329Z,82.28
2017-11-17T12:11:41.390Z,83.15
2017-11-17T12:14:10.226Z,102.53
2017-11-17T12:16:38.274Z,87.85
2017-11-17T12:19:06.333Z,101.53
2017-11-17T12:21:34.401Z,92.43
2017-11-17T12:24:02.470Z,120.65
2017-11-17T12:26:32.042Z,92.85
2017-11-17T12:29:00.126Z,100.70
2017-11-17T12:31:28.199Z,95.97
2017-11-17T12:33:57.837Z,95.85
2017-11-17T12:36:26.678Z,94.13
2017-11-17T12:38:54.737Z,99.30
2017-11-17T12:41:22.800Z,85.07
2017-11-17T12:43:50.879Z,100.95
2017-11-17T12:46:18.958Z,85.80
2017-11-17T12:48:47.026Z,83.65
2017-11-17T12:51:15.102Z,85.95
2017-11-17T12:53:43.164Z,101.28
2017-11-17T12:56:11.230Z,83.40
2017-11-17T12:58:39.710Z,90.85
2017-11-17T13:01:07.790Z,92.28
2017-11-17T13:03:35.838Z,92.50
2017-11-17T13:06:03.899Z,92.30
2017-11-17T13:08:31.974Z,90.07
2017-11-17T13:11:00.047Z,80.28
2017-11-17T13:13:28.105Z,94.32
2017-11-17T13:15:57.530Z,93.90
2017-11-17T13:18:25.498Z,87.80
2017-11-17T13:20:54.707Z,98.07
2017-11-17T13:23:23.528Z,92.22
2017-11-17T13:25:51.598Z,86.97
2017-11-17T13:28:19.651Z,93.90
2017-11-17T13:30:47.707Z,98.72
2017-11-17T13:33:15.776Z,96.20
2017-11-17T13:35:43.843Z,81.22
2017-11-17T13:38:11.913Z,90.15
2017-11-17T13:40:39.982Z,87.72
2017-11-17T13:43:08.433Z,77.37
2017-11-17T13:45:37.258Z,79.18
2017-11-17T13:48:05.327Z,88.47
2017-11-17T13:50:33.401Z,77.62
2017-11-17T13:53:01.450Z,93.40
2017-11-17T13:55:29.932Z,101.62
2017-11-17T13:57:58.390Z,85.97
2017-11-17T14:00:26.454Z,98.03
2017-11-17T14:02:55.658Z,86.72
2017-11-17T14:05:23.722Z,93.93
2017-11-17T14:07:51.786Z,100.30
2017-11-17T14:10:19.851Z,100.30
2017-11-17T14:12:47.926Z,96.82
2017-11-17T14:15:15.986Z,112.40
2017-11-17T14:17:44.046Z,100.62
2017-11-17T14:20:12.112Z,98.75
2017-11-17T14:22:40.165Z,97.82
2017-11-17T14:25:08.625Z,94.35
2017-11-17T14:27:38.215Z,100.20
2017-11-17T14:30:06.287Z,99.28
2017-11-17T14:32:34.746Z,95.87
2017-11-17T14:35:02.827Z,108.32
2017-11-17T14:37:30.914Z,101.12
2017-11-17T14:39:58.970Z,87.22
2017-11-17T14:42:27.029Z,106.68
2017-11-17T14:44:55.506Z,114.50
2017-11-17T14:47:23.561Z,92.85
2017-11-17T14:49:51.618Z,103.87
2017-11-17T14:52:19.685Z,99.95
2017-11-17T14:54:47.745Z,105.82
2017-11-17T14:57:16.585Z,98.45
2017-11-17T14:59:45.055Z,93.05
2017-11-17T15:02:13.144Z,103.20
2017-11-17T15:04:41.195Z,93.75
2017-11-17T15:07:09.251Z,101.82
2017-11-17T15:09:38.097Z,95.28
2017-11-17T15:12:06.562Z,99.90
2017-11-17T15:14:34.619Z,99.72
2017-11-17T15:17:02.696Z,105.20
2017-11-17T15:19:30.770Z,101.97
2017-11-17T15:21:59.597Z,106.70
2017-11-17T15:24:29.174Z,100.10
2017-11-17T15:26:57.230Z,108.30
2017-11-17T15:29:25.311Z,106.25
2017-11-17T15:31:53.775Z,91.57
2017-11-17T15:34:22.983Z,91.28
2017-11-17T15:36:51.067Z,102.87
2017-11-17T15:39:19.140Z,91.07
2017-11-17T15:41:47.214Z,104.43
2017-11-17T15:44:16.062Z,114.30
2017-11-17T15:46:44.122Z,94.75
2017-11-17T15:49:12.968Z,99.82
2017-11-17T15:51:41.409Z,105.75
2017-11-17T15:54:09.483Z,100.53
2017-11-17T15:56:38.331Z,101.03
2017-11-17T15:59:07.893Z,100.32
2017-11-17T16:01:35.965Z,91.00
2017-11-17T16:04:04.020Z,99.28
2017-11-17T16:06:32.100Z,100.45
2017-11-17T16:09:00.165Z,110.05
2017-11-17T16:11:28.226Z,98.57
2017-11-17T16:13:57.521Z,109.72
2017-11-17T16:16:26.342Z,106.32
2017-11-17T16:18:54.413Z,108.37
2017-11-17T16:21:22.470Z,97.90
2017-11-17T16:23:50.539Z,105.40
2017-11-17T16:26:18.626Z,95.55
2017-11-17T16:28:47.449Z,98.25
2017-11-17T16:31:15.506Z,95.82
2017-11-17T16:33:43.589Z,111.15
2017-11-17T16:36:12.438Z,106.68
2017-11-17T16:38:40.499Z,106.80
2017-11-17T16:41:09.327Z,101.05
2017-11-17T16:43:37.439Z,101.53
2017-11-17T16:46:06.279Z,108.40
2017-11-17T16:48:34.373Z,115.07
2017-11-17T16:51:03.188Z,97.85
2017-11-17T16:53:32.031Z,106.10
2017-11-17T16:56:00.092Z,99.80
2017-11-17T16:58:28.157Z,95.85
2017-11-17T17:00:56.235Z,107.25
2017-11-17T17:03:24.295Z,89.60
2017-11-17T17:05:53.729Z,90.45
2017-11-17T17:08:21.693Z,95.85
2017-11-17T17:10:49.750Z,91.72
2017-11-17T17:13:17.833Z,93.18
2017-11-17T17:15:45.892Z,91.80
2017-11-17T17:18:13.962Z,100.80
2017-11-17T17:20:42.795Z,95.43
2017-11-17T17:23:11.262Z,92.15
2017-11-17T17:25:39.350Z,106.28
2017-11-17T17:28:07.386Z,91.70
2017-11-17T17:30:36.222Z,96.82
2017-11-17T17:33:04.281Z,98.05
2017-11-17T17:35:33.882Z,107.63
2017-11-17T17:38:01.947Z,101.45
2017-11-17T17:40:30.005Z,87.03
2017-11-17T17:42:58.073Z,101.85
2017-11-17T17:45:26.129Z,96.20
2017-11-17T17:47:54.202Z,106.35
2017-11-17T17:50:22.266Z,103.30
2017-11-17T17:52:50.738Z,95.25
2017-11-17T17:55:20.166Z,103.18
2017-11-17T17:57:48.129Z,104.55
2017-11-17T18:00:16.206Z,129.60
2017-11-17T18:05:45.194Z,98.95
2017-11-17T18:08:13.566Z,103.53
2017-11-17T18:10:41.626Z,113.00
2017-11-17T18:13:10.100Z,109.82
2017-11-17T18:15:38.162Z,141.88
2017-11-17T18:18:06.238Z,116.20
2017-11-17T18:20:34.306Z,102.75
2017-11-17T18:23:02.417Z,124.10
2017-11-17T18:25:31.219Z,123.43
2017-11-17T18:27:59.269Z,104.15
2017-11-17T18:30:27.406Z,98.43
2017-11-17T18:32:55.432Z,114.07
2017-11-17T18:35:23.483Z,101.93
2017-11-17T18:37:52.367Z,108.63
2017-11-17T18:40:21.152Z,100.22
2017-11-17T18:42:49.693Z,127.12
2017-11-17T18:45:18.528Z,103.32
2017-11-17T18:47:47.332Z,108.18
2017-11-17T18:50:15.389Z,98.35
2017-11-17T18:52:43.503Z,107.78
2017-11-17T18:55:11.534Z,110.82
2017-11-17T18:57:39.629Z,108.97
2017-11-17T19:00:07.679Z,110.82
2017-11-17T19:02:35.746Z,104.45
2017-11-17T19:05:03.827Z,113.93
2017-11-17T19:07:31.934Z,110.07
2017-11-17T19:09:59.973Z,110.20
2017-11-17T19:12:28.094Z,119.15
2017-11-17T19:14:56.136Z,135.20
2017-11-17T19:17:24.196Z,105.93
2017-11-17T19:19:52.273Z,130.40
2017-11-17T19:22:20.361Z,128.95
2017-11-17T19:24:49.571Z,116.93
2017-11-17T19:27:18.064Z,128.27
2017-11-17T19:29:46.904Z,128.55
2017-11-17T19:32:14.970Z,136.68
2017-11-17T19:34:43.059Z,120.90
2017-11-17T19:37:11.131Z,141.82
2017-11-17T19:39:40.300Z,127.03
2017-11-17T19:42:08.367Z,148.35
2017-11-17T19:44:37.808Z,129.23
2017-11-17T19:47:06.557Z,121.53
2017-11-17T19:49:34.639Z,100.30
2017-11-17T19:52:02.719Z,102.65
2017-11-17T19:54:30.793Z,97.28
2017-11-17T19:56:58.885Z,91.78
2017-11-17T19:59:26.965Z,117.53
2017-11-17T20:01:55.821Z,121.15
2017-11-17T20:04:25.033Z,95.75
2017-11-17T20:06:53.091Z,92.78
2017-11-17T20:09:21.175Z,99.10
2017-11-17T20:11:49.248Z,115.37
2017-11-17T20:14:17.334Z,125.45
2017-11-17T20:16:47.077Z,125.65
2017-11-17T20:19:16.770Z,123.18
2017-11-17T20:21:52.080Z,124.20
2017-11-17T20:24:20.163Z,123.87
2017-11-17T20:26:49.800Z,123.55
2017-11-17T20:29:17.869Z,118.75
2017-11-17T20:31:45.944Z,109.03
2017-11-17T20:34:14.787Z,126.35
2017-11-17T20:36:43.791Z,115.45
2017-11-17T20:39:11.879Z,110.82
2017-11-17T20:41:39.951Z,102.80
2017-11-17T20:44:08.031Z,107.63
2017-11-17T20:46:36.103Z,120.60
2017-11-17T20:49:04.879Z,113.50
2017-11-17T20:51:33.721Z,113.20
2017-11-17T20:54:01.792Z,111.93
2017-11-17T20:56:29.873Z,110.63
2017-11-17T20:58:57.967Z,107.30
2017-11-17T21:01:26.031Z,106.45
2017-11-17T21:03:54.104Z,122.25
2017-11-17T21:06:22.584Z,114.35
2017-11-17T21:08:52.203Z,118.43
2017-11-17T21:11:20.306Z,112.90
2017-11-17T21:13:49.136Z,102.03
2017-11-17T21:16:17.212Z,111.28
2017-11-17T21:18:46.445Z,98.60
2017-11-17T21:21:14.500Z,94.47
2017-11-17T21:23:42.558Z,101.43
2017-11-17T21:26:10.636Z,103.55
2017-11-17T21:28:38.710Z,117.80
2017-11-17T21:31:06.800Z,111.03
2017-11-17T21:33:34.891Z,118.37
2017-11-17T21:36:02.977Z,128.77
2017-11-17T21:38:31.812Z,129.95
2017-11-17T21:40:59.902Z,127.32
2017-11-17T21:43:27.972Z,149.18
2017-11-17T21:45:56.803Z,131.40
2017-11-17T21:48:24.886Z,138.85
2017-11-17T21:50:52.959Z,125.38
2017-11-17T21:53:21.043Z,124.47
2017-11-17T21:55:49.110Z,122.60
2017-11-17T21:58:17.189Z,101.32
2017-11-17T22:00:45.254Z,113.03
2017-11-17T22:03:13.339Z,128.12
2017-11-17T22:05:41.428Z,105.32
2017-11-17T22:08:10.267Z,114.53
2017-11-17T22:10:39.111Z,103.72
2017-11-17T22:13:07.951Z,114.22
2017-11-17T22:15:36.031Z,118.20
2017-11-17T22:18:04.099Z,128.87
2017-11-17T22:20:33.686Z,125.80
2017-11-17T22:23:01.756Z,142.25
2017-11-17T22:25:29.836Z,124.90
2017-11-17T22:27:58.736Z,141.27
2017-11-17T22:30:26.806Z,125.90
2017-11-17T22:32:56.231Z,117.53
2017-11-17T22:35:24.224Z,124.18
2017-11-17T22:37:52.309Z,104.82
2017-11-17T22:40:20.374Z,95.43
2017-11-17T22:42:48.438Z,84.40
2017-11-17T22:45:16.528Z,70.95
2017-11-17T22:47:44.591Z,73.05
2017-11-17T22:50:12.673Z,61.35
2017-11-17T22:52:40.730Z,73.10
2017-11-17T22:55:08.903Z,63.15
2017-11-17T22:57:36.990Z,67.90
2017-11-17T23:00:05.050Z,63.58
2017-11-17T23:02:34.242Z,64.53
2017-11-17T23:05:02.314Z,73.82
2017-11-17T23:07:30.396Z,63.45
2017-11-17T23:09:58.458Z,77.70
2017-11-17T23:12:26.529Z,65.10
2017-11-17T23:14:56.120Z,70.05
2017-11-17T23:17:24.188Z,73.60
2017-11-17T23:19:52.242Z,68.07
2017-11-17T23:22:21.454Z,63.38
2017-11-17T23:24:49.511Z,69.35
2017-11-17T23:27:18.382Z,66.25
2017-11-17T23:29:46.443Z,63.28
2017-11-17T23:32:14.509Z,78.70
2017-11-17T23:34:42.594Z,79.57
2017-11-17T23:37:10.663Z,81.85
2017-11-17T23:39:38.818Z,83.22
2017-11-17T23:42:06.891Z,89.37
2017-11-17T23:44:34.997Z,100.90
2017-11-17T23:47:04.579Z,103.20
2017-11-17T23:49:33.421Z,91.12
2017-11-17T23:52:01.493Z,93.78
2017-11-17T23:54:29.562Z,110.70
2017-11-17T23:56:57.631Z,114.07
2017-11-17T23:59:25.710Z,105.90
